Terminal Aerodrome Forecast
Issued by NWS Glasgow, MT

Home | Current Version | Previous Version | Text Only | Print | Product List | Glossary On
Versions: 1 2 3 4 5 6 7 8 9 10 11 12 13
000
FTUS45 KGGW 020500
TAFGGW
TAF
KGGW 020537Z 0206/0306 29020G30KT P6SM SCT110
     FM021200 30016G26KT P6SM VCSH BKN030
     FM030000 33014KT P6SM BKN140=

USA.gov is the U.S. government's official web portal to all federal, state and local government web resources and services.